sensor_id;sensor_type;location;lat;lon;timestamp;P1;durP1;ratioP1;P2;durP2;ratioP2
62102;SDS011;48077;48.104;11.702;2022-12-07T00:01:41;22.27;;;14.95;;
62102;SDS011;48077;48.104;11.702;2022-12-07T00:04:05;21.00;;;13.80;;
62102;SDS011;48077;48.104;11.702;2022-12-07T00:06:34;19.80;;;14.75;;
62102;SDS011;48077;48.104;11.702;2022-12-07T00:09:03;19.67;;;14.80;;
62102;SDS011;48077;48.104;11.702;2022-12-07T00:11:28;20.10;;;15.02;;
62102;SDS011;48077;48.104;11.702;2022-12-07T00:13:52;22.15;;;15.63;;
62102;SDS011;48077;48.104;11.702;2022-12-07T00:16:17;23.10;;;16.33;;
62102;SDS011;48077;48.104;11.702;2022-12-07T00:18:43;25.45;;;16.60;;
62102;SDS011;48077;48.104;11.702;2022-12-07T00:21:14;25.80;;;17.60;;
62102;SDS011;48077;48.104;11.702;2022-12-07T00:23:42;20.55;;;14.23;;
62102;SDS011;48077;48.104;11.702;2022-12-07T00:26:07;19.55;;;13.48;;
62102;SDS011;48077;48.104;11.702;2022-12-07T00:28:33;21.88;;;14.00;;
62102;SDS011;48077;48.104;11.702;2022-12-07T00:31:01;19.13;;;13.55;;
62102;SDS011;48077;48.104;11.702;2022-12-07T00:35:55;20.77;;;18.30;;
62102;SDS011;48077;48.104;11.702;2022-12-07T00:38:19;20.92;;;17.08;;
62102;SDS011;48077;48.104;11.702;2022-12-07T00:40:42;17.88;;;14.90;;
62102;SDS011;48077;48.104;11.702;2022-12-07T00:43:06;17.42;;;13.55;;
62102;SDS011;48077;48.104;11.702;2022-12-07T00:45:29;18.00;;;13.50;;
62102;SDS011;48077;48.104;11.702;2022-12-07T00:47:55;16.23;;;12.15;;
62102;SDS011;48077;48.104;11.702;2022-12-07T00:50:21;18.33;;;11.85;;
62102;SDS011;48077;48.104;11.702;2022-12-07T00:52:44;17.95;;;11.80;;
62102;SDS011;48077;48.104;11.702;2022-12-07T00:55:08;16.08;;;11.20;;
62102;SDS011;48077;48.104;11.702;2022-12-07T00:57:31;19.13;;;14.73;;
62102;SDS011;48077;48.104;11.702;2022-12-07T00:59:54;13.93;;;10.77;;
62102;SDS011;48077;48.104;11.702;2022-12-07T01:02:21;16.42;;;11.90;;
62102;SDS011;48077;48.104;11.702;2022-12-07T01:04:45;14.80;;;11.75;;
62102;SDS011;48077;48.104;11.702;2022-12-07T01:07:08;16.50;;;12.43;;
62102;SDS011;48077;48.104;11.702;2022-12-07T01:09:31;14.43;;;12.02;;
62102;SDS011;48077;48.104;11.702;2022-12-07T01:11:55;13.00;;;10.63;;
62102;SDS011;48077;48.104;11.702;2022-12-07T01:14:18;15.25;;;12.10;;
62102;SDS011;48077;48.104;11.702;2022-12-07T01:16:42;16.58;;;12.07;;
62102;SDS011;48077;48.104;11.702;2022-12-07T01:19:05;14.02;;;10.90;;
62102;SDS011;48077;48.104;11.702;2022-12-07T01:21:30;12.55;;;11.25;;
62102;SDS011;48077;48.104;11.702;2022-12-07T01:23:58;15.60;;;10.75;;
62102;SDS011;48077;48.104;11.702;2022-12-07T01:26:24;14.93;;;10.82;;
62102;SDS011;48077;48.104;11.702;2022-12-07T01:28:49;14.85;;;11.48;;
62102;SDS011;48077;48.104;11.702;2022-12-07T01:31:14;13.40;;;11.13;;
62102;SDS011;48077;48.104;11.702;2022-12-07T01:33:39;13.00;;;9.85;;
62102;SDS011;48077;48.104;11.702;2022-12-07T01:36:03;14.43;;;11.10;;
62102;SDS011;48077;48.104;11.702;2022-12-07T01:38:31;12.95;;;11.60;;
62102;SDS011;48077;48.104;11.702;2022-12-07T01:40:56;11.90;;;9.90;;
62102;SDS011;48077;48.104;11.702;2022-12-07T01:43:20;12.07;;;9.60;;
62102;SDS011;48077;48.104;11.702;2022-12-07T01:45:45;11.93;;;10.50;;
62102;SDS011;48077;48.104;11.702;2022-12-07T01:48:09;12.80;;;10.60;;
62102;SDS011;48077;48.104;11.702;2022-12-07T01:50:35;12.15;;;10.90;;
62102;SDS011;48077;48.104;11.702;2022-12-07T01:53:02;11.48;;;9.80;;
62102;SDS011;48077;48.104;11.702;2022-12-07T01:55:28;12.30;;;9.60;;
62102;SDS011;48077;48.104;11.702;2022-12-07T01:57:53;14.00;;;10.65;;
62102;SDS011;48077;48.104;11.702;2022-12-07T02:00:17;12.32;;;9.75;;
62102;SDS011;48077;48.104;11.702;2022-12-07T02:02:43;11.43;;;10.13;;
62102;SDS011;48077;48.104;11.702;2022-12-07T02:05:07;13.45;;;9.18;;
62102;SDS011;48077;48.104;11.702;2022-12-07T02:07:30;10.98;;;9.65;;
62102;SDS011;48077;48.104;11.702;2022-12-07T02:09:55;11.15;;;8.43;;
62102;SDS011;48077;48.104;11.702;2022-12-07T02:12:19;11.45;;;9.57;;
62102;SDS011;48077;48.104;11.702;2022-12-07T02:14:44;12.25;;;10.98;;
62102;SDS011;48077;48.104;11.702;2022-12-07T02:31:33;12.00;;;10.45;;
62102;SDS011;48077;48.104;11.702;2022-12-07T02:34:07;11.63;;;10.43;;
62102;SDS011;48077;48.104;11.702;2022-12-07T02:36:45;14.93;;;10.45;;
62102;SDS011;48077;48.104;11.702;2022-12-07T02:39:15;12.70;;;11.40;;
62102;SDS011;48077;48.104;11.702;2022-12-07T02:41:44;12.93;;;10.48;;
62102;SDS011;48077;48.104;11.702;2022-12-07T02:44:13;11.82;;;9.38;;
62102;SDS011;48077;48.104;11.702;2022-12-07T02:46:40;11.35;;;9.68;;
62102;SDS011;48077;48.104;11.702;2022-12-07T02:49:07;11.18;;;8.85;;
62102;SDS011;48077;48.104;11.702;2022-12-07T02:51:31;12.13;;;10.27;;
62102;SDS011;48077;48.104;11.702;2022-12-07T02:53:56;12.82;;;10.40;;
62102;SDS011;48077;48.104;11.702;2022-12-07T02:58:59;12.52;;;9.52;;
62102;SDS011;48077;48.104;11.702;2022-12-07T03:06:51;12.27;;;10.50;;
62102;SDS011;48077;48.104;11.702;2022-12-07T03:09:26;11.77;;;9.85;;
62102;SDS011;48077;48.104;11.702;2022-12-07T03:12:01;10.63;;;9.18;;
62102;SDS011;48077;48.104;11.702;2022-12-07T03:14:38;9.00;;;8.10;;
62102;SDS011;48077;48.104;11.702;2022-12-07T03:19:35;14.40;;;11.43;;
62102;SDS011;48077;48.104;11.702;2022-12-07T03:22:01;11.93;;;8.90;;
62102;SDS011;48077;48.104;11.702;2022-12-07T03:24:30;13.18;;;9.38;;
62102;SDS011;48077;48.104;11.702;2022-12-07T03:27:03;11.35;;;10.00;;
62102;SDS011;48077;48.104;11.702;2022-12-07T03:29:36;13.50;;;10.55;;
62102;SDS011;48077;48.104;11.702;2022-12-07T03:32:14;12.27;;;10.20;;
62102;SDS011;48077;48.104;11.702;2022-12-07T03:34:47;12.90;;;11.02;;
62102;SDS011;48077;48.104;11.702;2022-12-07T03:37:23;12.55;;;10.35;;
62102;SDS011;48077;48.104;11.702;2022-12-07T03:39:58;11.35;;;9.32;;
62102;SDS011;48077;48.104;11.702;2022-12-07T03:42:36;11.80;;;10.57;;
62102;SDS011;48077;48.104;11.702;2022-12-07T03:45:02;11.50;;;10.15;;
62102;SDS011;48077;48.104;11.702;2022-12-07T03:47:46;11.15;;;9.82;;
62102;SDS011;48077;48.104;11.702;2022-12-07T03:50:21;11.77;;;10.55;;
62102;SDS011;48077;48.104;11.702;2022-12-07T03:53:03;13.18;;;11.88;;
62102;SDS011;48077;48.104;11.702;2022-12-07T03:55:32;12.05;;;10.63;;
62102;SDS011;48077;48.104;11.702;2022-12-07T03:58:00;11.02;;;9.93;;
62102;SDS011;48077;48.104;11.702;2022-12-07T04:02:52;18.60;;;15.48;;
62102;SDS011;48077;48.104;11.702;2022-12-07T04:05:15;13.20;;;11.80;;
62102;SDS011;48077;48.104;11.702;2022-12-07T04:07:39;12.07;;;10.68;;
62102;SDS011;48077;48.104;11.702;2022-12-07T04:10:04;11.55;;;10.43;;
62102;SDS011;48077;48.104;11.702;2022-12-07T04:12:28;11.43;;;9.65;;
62102;SDS011;48077;48.104;11.702;2022-12-07T04:14:51;11.40;;;10.05;;
62102;SDS011;48077;48.104;11.702;2022-12-07T04:17:14;12.52;;;9.43;;
62102;SDS011;48077;48.104;11.702;2022-12-07T04:19:38;10.65;;;9.60;;
62102;SDS011;48077;48.104;11.702;2022-12-07T04:22:02;14.02;;;9.35;;
62102;SDS011;48077;48.104;11.702;2022-12-07T04:24:26;13.20;;;9.00;;
62102;SDS011;48077;48.104;11.702;2022-12-07T04:26:50;11.05;;;8.27;;
62102;SDS011;48077;48.104;11.702;2022-12-07T04:29:14;10.75;;;9.15;;
62102;SDS011;48077;48.104;11.702;2022-12-07T04:31:38;10.77;;;9.57;;
62102;SDS011;48077;48.104;11.702;2022-12-07T04:34:02;12.82;;;10.07;;
62102;SDS011;48077;48.104;11.702;2022-12-07T04:36:25;14.32;;;10.60;;
62102;SDS011;48077;48.104;11.702;2022-12-07T04:38:49;11.23;;;10.13;;
62102;SDS011;48077;48.104;11.702;2022-12-07T04:41:13;11.73;;;10.15;;
62102;SDS011;48077;48.104;11.702;2022-12-07T04:43:36;12.73;;;10.30;;
62102;SDS011;48077;48.104;11.702;2022-12-07T04:46:00;11.88;;;9.55;;
62102;SDS011;48077;48.104;11.702;2022-12-07T04:48:24;11.52;;;10.00;;
62102;SDS011;48077;48.104;11.702;2022-12-07T04:50:48;13.68;;;11.85;;
62102;SDS011;48077;48.104;11.702;2022-12-07T04:53:12;12.65;;;10.38;;
62102;SDS011;48077;48.104;11.702;2022-12-07T04:55:35;13.48;;;11.15;;
62102;SDS011;48077;48.104;11.702;2022-12-07T04:57:59;15.07;;;11.30;;
62102;SDS011;48077;48.104;11.702;2022-12-07T05:00:22;16.98;;;12.15;;
62102;SDS011;48077;48.104;11.702;2022-12-07T05:02:46;17.67;;;13.13;;
62102;SDS011;48077;48.104;11.702;2022-12-07T05:05:09;14.60;;;12.35;;
62102;SDS011;48077;48.104;11.702;2022-12-07T05:07:32;16.23;;;12.88;;
62102;SDS011;48077;48.104;11.702;2022-12-07T05:09:56;14.63;;;12.90;;
62102;SDS011;48077;48.104;11.702;2022-12-07T05:12:19;17.17;;;13.40;;
62102;SDS011;48077;48.104;11.702;2022-12-07T05:14:42;16.15;;;12.52;;
62102;SDS011;48077;48.104;11.702;2022-12-07T05:17:06;17.50;;;13.57;;
62102;SDS011;48077;48.104;11.702;2022-12-07T05:19:29;18.45;;;13.88;;
62102;SDS011;48077;48.104;11.702;2022-12-07T05:21:52;20.55;;;15.75;;
62102;SDS011;48077;48.104;11.702;2022-12-07T05:24:16;18.08;;;14.40;;
62102;SDS011;48077;48.104;11.702;2022-12-07T05:26:40;19.02;;;14.40;;
62102;SDS011;48077;48.104;11.702;2022-12-07T05:29:04;20.33;;;14.82;;
62102;SDS011;48077;48.104;11.702;2022-12-07T05:31:28;19.45;;;13.45;;
62102;SDS011;48077;48.104;11.702;2022-12-07T05:33:52;16.52;;;13.25;;
62102;SDS011;48077;48.104;11.702;2022-12-07T05:36:15;18.95;;;13.98;;
62102;SDS011;48077;48.104;11.702;2022-12-07T05:38:39;21.08;;;14.82;;
62102;SDS011;48077;48.104;11.702;2022-12-07T05:41:03;17.73;;;14.00;;
62102;SDS011;48077;48.104;11.702;2022-12-07T05:43:28;21.52;;;15.77;;
62102;SDS011;48077;48.104;11.702;2022-12-07T05:45:52;17.75;;;14.95;;
62102;SDS011;48077;48.104;11.702;2022-12-07T05:48:15;18.38;;;14.07;;
62102;SDS011;48077;48.104;11.702;2022-12-07T05:50:38;15.75;;;13.75;;
62102;SDS011;48077;48.104;11.702;2022-12-07T05:53:02;16.90;;;13.82;;
62102;SDS011;48077;48.104;11.702;2022-12-07T05:55:25;17.10;;;14.63;;
62102;SDS011;48077;48.104;11.702;2022-12-07T05:57:48;15.15;;;12.90;;
62102;SDS011;48077;48.104;11.702;2022-12-07T06:00:30;17.65;;;15.48;;
62102;SDS011;48077;48.104;11.702;2022-12-07T06:02:54;16.05;;;13.05;;
62102;SDS011;48077;48.104;11.702;2022-12-07T06:05:17;15.82;;;13.95;;
62102;SDS011;48077;48.104;11.702;2022-12-07T06:07:40;15.63;;;13.35;;
62102;SDS011;48077;48.104;11.702;2022-12-07T06:10:04;17.20;;;13.10;;
62102;SDS011;48077;48.104;11.702;2022-12-07T06:12:27;15.77;;;13.18;;
62102;SDS011;48077;48.104;11.702;2022-12-07T06:17:20;22.95;;;19.92;;
62102;SDS011;48077;48.104;11.702;2022-12-07T06:19:43;21.60;;;16.98;;
62102;SDS011;48077;48.104;11.702;2022-12-07T06:22:07;17.45;;;15.50;;
62102;SDS011;48077;48.104;11.702;2022-12-07T06:24:32;20.83;;;16.25;;
62102;SDS011;48077;48.104;11.702;2022-12-07T06:26:56;16.35;;;14.07;;
62102;SDS011;48077;48.104;11.702;2022-12-07T06:29:19;19.45;;;14.52;;
62102;SDS011;48077;48.104;11.702;2022-12-07T06:31:43;19.67;;;15.38;;
62102;SDS011;48077;48.104;11.702;2022-12-07T06:34:09;21.70;;;15.88;;
62102;SDS011;48077;48.104;11.702;2022-12-07T06:36:36;18.00;;;14.73;;
62102;SDS011;48077;48.104;11.702;2022-12-07T06:39:00;18.92;;;13.85;;
62102;SDS011;48077;48.104;11.702;2022-12-07T06:41:24;18.65;;;14.45;;
62102;SDS011;48077;48.104;11.702;2022-12-07T06:43:47;17.02;;;14.30;;
62102;SDS011;48077;48.104;11.702;2022-12-07T06:46:11;21.20;;;13.75;;
62102;SDS011;48077;48.104;11.702;2022-12-07T06:48:34;17.05;;;12.95;;
62102;SDS011;48077;48.104;11.702;2022-12-07T06:50:57;14.40;;;12.23;;
62102;SDS011;48077;48.104;11.702;2022-12-07T06:53:21;17.02;;;12.13;;
62102;SDS011;48077;48.104;11.702;2022-12-07T06:55:45;15.60;;;12.23;;
62102;SDS011;48077;48.104;11.702;2022-12-07T06:58:08;19.23;;;13.55;;
62102;SDS011;48077;48.104;11.702;2022-12-07T07:00:31;17.50;;;12.73;;
62102;SDS011;48077;48.104;11.702;2022-12-07T07:02:58;15.88;;;14.18;;
62102;SDS011;48077;48.104;11.702;2022-12-07T07:05:21;15.80;;;13.13;;
62102;SDS011;48077;48.104;11.702;2022-12-07T07:07:45;17.48;;;13.45;;
62102;SDS011;48077;48.104;11.702;2022-12-07T07:10:08;19.42;;;14.55;;
62102;SDS011;48077;48.104;11.702;2022-12-07T07:12:32;18.05;;;14.13;;
62102;SDS011;48077;48.104;11.702;2022-12-07T07:14:55;15.85;;;13.90;;
62102;SDS011;48077;48.104;11.702;2022-12-07T07:17:19;16.67;;;13.43;;
62102;SDS011;48077;48.104;11.702;2022-12-07T07:19:42;16.35;;;13.05;;
62102;SDS011;48077;48.104;11.702;2022-12-07T07:22:06;16.85;;;13.52;;
62102;SDS011;48077;48.104;11.702;2022-12-07T07:24:29;16.45;;;13.35;;
62102;SDS011;48077;48.104;11.702;2022-12-07T07:26:53;14.50;;;12.35;;
62102;SDS011;48077;48.104;11.702;2022-12-07T07:29:16;15.82;;;13.18;;
62102;SDS011;48077;48.104;11.702;2022-12-07T07:31:39;14.65;;;12.65;;
62102;SDS011;48077;48.104;11.702;2022-12-07T07:34:03;16.15;;;13.88;;
62102;SDS011;48077;48.104;11.702;2022-12-07T07:36:27;17.95;;;13.30;;
62102;SDS011;48077;48.104;11.702;2022-12-07T07:38:50;18.52;;;14.32;;
62102;SDS011;48077;48.104;11.702;2022-12-07T07:41:13;16.80;;;12.95;;
62102;SDS011;48077;48.104;11.702;2022-12-07T07:43:37;18.67;;;12.90;;
62102;SDS011;48077;48.104;11.702;2022-12-07T07:46:00;17.85;;;13.48;;
62102;SDS011;48077;48.104;11.702;2022-12-07T07:48:26;17.67;;;12.45;;
62102;SDS011;48077;48.104;11.702;2022-12-07T07:50:49;14.32;;;12.10;;
62102;SDS011;48077;48.104;11.702;2022-12-07T07:53:12;16.80;;;13.32;;
62102;SDS011;48077;48.104;11.702;2022-12-07T07:55:36;17.92;;;13.07;;
62102;SDS011;48077;48.104;11.702;2022-12-07T07:57:59;16.38;;;13.15;;
62102;SDS011;48077;48.104;11.702;2022-12-07T08:00:23;16.50;;;14.23;;
62102;SDS011;48077;48.104;11.702;2022-12-07T08:02:49;15.27;;;13.50;;
62102;SDS011;48077;48.104;11.702;2022-12-07T08:05:13;17.23;;;13.63;;
62102;SDS011;48077;48.104;11.702;2022-12-07T08:07:36;15.52;;;12.20;;
62102;SDS011;48077;48.104;11.702;2022-12-07T08:10:00;18.73;;;13.48;;
62102;SDS011;48077;48.104;11.702;2022-12-07T08:12:23;15.68;;;11.82;;
62102;SDS011;48077;48.104;11.702;2022-12-07T08:14:47;17.38;;;12.90;;
62102;SDS011;48077;48.104;11.702;2022-12-07T08:17:10;19.23;;;13.65;;
62102;SDS011;48077;48.104;11.702;2022-12-07T08:19:33;18.17;;;13.82;;
62102;SDS011;48077;48.104;11.702;2022-12-07T08:21:57;16.95;;;12.90;;
62102;SDS011;48077;48.104;11.702;2022-12-07T08:24:21;14.23;;;11.40;;
62102;SDS011;48077;48.104;11.702;2022-12-07T08:26:45;16.77;;;13.05;;
62102;SDS011;48077;48.104;11.702;2022-12-07T08:29:08;15.85;;;13.00;;
62102;SDS011;48077;48.104;11.702;2022-12-07T08:31:32;17.67;;;12.38;;
62102;SDS011;48077;48.104;11.702;2022-12-07T08:33:55;15.02;;;11.63;;
62102;SDS011;48077;48.104;11.702;2022-12-07T08:36:19;23.50;;;14.95;;
62102;SDS011;48077;48.104;11.702;2022-12-07T08:38:42;17.33;;;12.50;;
62102;SDS011;48077;48.104;11.702;2022-12-07T08:41:06;18.25;;;12.70;;
62102;SDS011;48077;48.104;11.702;2022-12-07T08:43:30;17.80;;;13.77;;
62102;SDS011;48077;48.104;11.702;2022-12-07T08:46:07;15.70;;;11.82;;
62102;SDS011;48077;48.104;11.702;2022-12-07T08:48:33;17.02;;;12.82;;
62102;SDS011;48077;48.104;11.702;2022-12-07T08:50:58;18.38;;;12.68;;
62102;SDS011;48077;48.104;11.702;2022-12-07T08:53:26;15.10;;;12.13;;
62102;SDS011;48077;48.104;11.702;2022-12-07T08:55:50;17.13;;;12.60;;
62102;SDS011;48077;48.104;11.702;2022-12-07T08:58:13;15.57;;;12.10;;
62102;SDS011;48077;48.104;11.702;2022-12-07T09:00:37;15.88;;;11.68;;
62102;SDS011;48077;48.104;11.702;2022-12-07T09:03:00;13.95;;;11.55;;
62102;SDS011;48077;48.104;11.702;2022-12-07T09:05:24;15.25;;;12.30;;
62102;SDS011;48077;48.104;11.702;2022-12-07T09:07:48;14.13;;;11.55;;
62102;SDS011;48077;48.104;11.702;2022-12-07T09:10:14;16.55;;;11.73;;
62102;SDS011;48077;48.104;11.702;2022-12-07T09:12:37;14.35;;;11.65;;
62102;SDS011;48077;48.104;11.702;2022-12-07T09:15:01;16.05;;;11.68;;
62102;SDS011;48077;48.104;11.702;2022-12-07T09:17:25;17.17;;;12.32;;
62102;SDS011;48077;48.104;11.702;2022-12-07T09:19:49;15.45;;;11.80;;
62102;SDS011;48077;48.104;11.702;2022-12-07T09:22:12;15.38;;;11.35;;
62102;SDS011;48077;48.104;11.702;2022-12-07T09:24:35;14.13;;;10.65;;
62102;SDS011;48077;48.104;11.702;2022-12-07T09:26:59;15.70;;;11.43;;
62102;SDS011;48077;48.104;11.702;2022-12-07T09:29:22;14.52;;;11.48;;
62102;SDS011;48077;48.104;11.702;2022-12-07T09:31:46;16.40;;;11.73;;
62102;SDS011;48077;48.104;11.702;2022-12-07T09:34:09;17.63;;;11.77;;
62102;SDS011;48077;48.104;11.702;2022-12-07T09:36:32;15.77;;;12.05;;
62102;SDS011;48077;48.104;11.702;2022-12-07T09:38:56;15.35;;;11.93;;
62102;SDS011;48077;48.104;11.702;2022-12-07T09:41:19;16.10;;;10.65;;
62102;SDS011;48077;48.104;11.702;2022-12-07T09:43:45;18.90;;;12.07;;
62102;SDS011;48077;48.104;11.702;2022-12-07T09:46:13;21.27;;;13.20;;
62102;SDS011;48077;48.104;11.702;2022-12-07T09:48:40;14.02;;;12.32;;
62102;SDS011;48077;48.104;11.702;2022-12-07T09:53:38;15.02;;;10.88;;
62102;SDS011;48077;48.104;11.702;2022-12-07T09:56:02;16.55;;;12.07;;
62102;SDS011;48077;48.104;11.702;2022-12-07T09:58:28;15.20;;;11.25;;
62102;SDS011;48077;48.104;11.702;2022-12-07T10:00:55;12.45;;;9.82;;
62102;SDS011;48077;48.104;11.702;2022-12-07T10:03:21;14.35;;;10.27;;
62102;SDS011;48077;48.104;11.702;2022-12-07T10:05:45;16.98;;;11.02;;
62102;SDS011;48077;48.104;11.702;2022-12-07T10:08:11;15.45;;;10.55;;
62102;SDS011;48077;48.104;11.702;2022-12-07T10:10:38;15.80;;;10.60;;
62102;SDS011;48077;48.104;11.702;2022-12-07T10:13:03;14.00;;;10.35;;
62102;SDS011;48077;48.104;11.702;2022-12-07T10:18:18;14.52;;;10.40;;
62102;SDS011;48077;48.104;11.702;2022-12-07T10:20:59;14.15;;;9.95;;
62102;SDS011;48077;48.104;11.702;2022-12-07T10:23:35;14.55;;;10.70;;
62102;SDS011;48077;48.104;11.702;2022-12-07T10:26:26;13.80;;;8.05;;
62102;SDS011;48077;48.104;11.702;2022-12-07T10:28:53;13.73;;;9.68;;
62102;SDS011;48077;48.104;11.702;2022-12-07T10:31:17;13.68;;;9.23;;
62102;SDS011;48077;48.104;11.702;2022-12-07T10:33:52;14.73;;;8.70;;
62102;SDS011;48077;48.104;11.702;2022-12-07T10:36:34;12.65;;;9.48;;
62102;SDS011;48077;48.104;11.702;2022-12-07T10:39:03;11.52;;;8.98;;
62102;SDS011;48077;48.104;11.702;2022-12-07T10:41:27;10.90;;;8.30;;
62102;SDS011;48077;48.104;11.702;2022-12-07T10:43:54;11.48;;;9.27;;
62102;SDS011;48077;48.104;11.702;2022-12-07T10:46:26;12.73;;;7.70;;
62102;SDS011;48077;48.104;11.702;2022-12-07T10:51:55;13.50;;;9.73;;
62102;SDS011;48077;48.104;11.702;2022-12-07T11:00:19;11.05;;;8.52;;
62102;SDS011;48077;48.104;11.702;2022-12-07T11:02:59;12.35;;;9.20;;
62102;SDS011;48077;48.104;11.702;2022-12-07T11:08:32;13.88;;;8.88;;
62102;SDS011;48077;48.104;11.702;2022-12-07T11:11:11;12.35;;;8.85;;
62102;SDS011;48077;48.104;11.702;2022-12-07T11:24:40;17.27;;;9.23;;
62102;SDS011;48077;48.104;11.702;2022-12-07T11:27:39;11.18;;;8.65;;
62102;SDS011;48077;48.104;11.702;2022-12-07T11:32:51;11.38;;;7.45;;
62102;SDS011;48077;48.104;11.702;2022-12-07T11:35:24;12.73;;;7.38;;
62102;SDS011;48077;48.104;11.702;2022-12-07T11:37:48;13.38;;;7.68;;
62102;SDS011;48077;48.104;11.702;2022-12-07T11:40:20;12.40;;;7.03;;
62102;SDS011;48077;48.104;11.702;2022-12-07T11:42:52;12.18;;;7.97;;
62102;SDS011;48077;48.104;11.702;2022-12-07T11:45:23;11.73;;;7.13;;
62102;SDS011;48077;48.104;11.702;2022-12-07T11:47:55;10.48;;;6.80;;
62102;SDS011;48077;48.104;11.702;2022-12-07T11:50:25;10.02;;;7.22;;
62102;SDS011;48077;48.104;11.702;2022-12-07T11:52:58;14.32;;;7.63;;
62102;SDS011;48077;48.104;11.702;2022-12-07T11:58:35;10.68;;;7.90;;
62102;SDS011;48077;48.104;11.702;2022-12-07T12:01:01;12.38;;;8.45;;
62102;SDS011;48077;48.104;11.702;2022-12-07T12:03:31;12.13;;;8.02;;
62102;SDS011;48077;48.104;11.702;2022-12-07T12:06:00;12.00;;;8.27;;
62102;SDS011;48077;48.104;11.702;2022-12-07T12:08:26;11.45;;;7.95;;
62102;SDS011;48077;48.104;11.702;2022-12-07T12:13:46;11.55;;;9.07;;
62102;SDS011;48077;48.104;11.702;2022-12-07T12:22:21;12.73;;;7.95;;
62102;SDS011;48077;48.104;11.702;2022-12-07T12:24:55;12.82;;;8.30;;
62102;SDS011;48077;48.104;11.702;2022-12-07T12:29:58;12.20;;;7.22;;
62102;SDS011;48077;48.104;11.702;2022-12-07T12:32:30;11.02;;;7.05;;
62102;SDS011;48077;48.104;11.702;2022-12-07T12:37:50;12.18;;;7.45;;
62102;SDS011;48077;48.104;11.702;2022-12-07T12:42:51;10.82;;;6.50;;
62102;SDS011;48077;48.104;11.702;2022-12-07T12:45:23;10.82;;;6.72;;
62102;SDS011;48077;48.104;11.702;2022-12-07T12:50:25;10.80;;;7.18;;
62102;SDS011;48077;48.104;11.702;2022-12-07T12:53:01;11.00;;;7.65;;
62102;SDS011;48077;48.104;11.702;2022-12-07T13:00:40;15.00;;;10.38;;
62102;SDS011;48077;48.104;11.702;2022-12-07T13:03:03;15.30;;;8.98;;
62102;SDS011;48077;48.104;11.702;2022-12-07T13:05:30;14.20;;;10.55;;
62102;SDS011;48077;48.104;11.702;2022-12-07T13:07:55;16.45;;;13.65;;
62102;SDS011;48077;48.104;11.702;2022-12-07T13:17:57;13.02;;;8.40;;
62102;SDS011;48077;48.104;11.702;2022-12-07T13:23:10;11.60;;;8.20;;
62102;SDS011;48077;48.104;11.702;2022-12-07T13:25:34;11.10;;;7.68;;
62102;SDS011;48077;48.104;11.702;2022-12-07T13:28:09;14.52;;;8.05;;
62102;SDS011;48077;48.104;11.702;2022-12-07T13:30:43;12.77;;;8.00;;
62102;SDS011;48077;48.104;11.702;2022-12-07T13:33:17;10.55;;;7.43;;
62102;SDS011;48077;48.104;11.702;2022-12-07T13:35:41;12.45;;;9.02;;
62102;SDS011;48077;48.104;11.702;2022-12-07T13:38:13;12.48;;;8.02;;
62102;SDS011;48077;48.104;11.702;2022-12-07T13:40:59;11.60;;;8.32;;
62102;SDS011;48077;48.104;11.702;2022-12-07T13:43:43;11.55;;;7.97;;
62102;SDS011;48077;48.104;11.702;2022-12-07T13:46:15;10.93;;;7.75;;
62102;SDS011;48077;48.104;11.702;2022-12-07T13:48:43;11.75;;;7.88;;
62102;SDS011;48077;48.104;11.702;2022-12-07T13:51:44;9.90;;;6.82;;
62102;SDS011;48077;48.104;11.702;2022-12-07T13:54:01;14.15;;;8.13;;
62102;SDS011;48077;48.104;11.702;2022-12-07T13:56:36;11.32;;;7.43;;
62102;SDS011;48077;48.104;11.702;2022-12-07T13:59:02;13.77;;;8.27;;
62102;SDS011;48077;48.104;11.702;2022-12-07T14:01:28;18.40;;;11.15;;
62102;SDS011;48077;48.104;11.702;2022-12-07T14:03:54;24.33;;;11.23;;
62102;SDS011;48077;48.104;11.702;2022-12-07T14:06:19;20.65;;;9.98;;
62102;SDS011;48077;48.104;11.702;2022-12-07T14:08:48;22.30;;;12.48;;
62102;SDS011;48077;48.104;11.702;2022-12-07T14:11:20;20.88;;;12.38;;
62102;SDS011;48077;48.104;11.702;2022-12-07T14:13:45;16.27;;;11.05;;
62102;SDS011;48077;48.104;11.702;2022-12-07T14:16:23;16.30;;;10.82;;
62102;SDS011;48077;48.104;11.702;2022-12-07T14:18:50;13.88;;;9.35;;
62102;SDS011;48077;48.104;11.702;2022-12-07T14:23:38;12.50;;;7.72;;
62102;SDS011;48077;48.104;11.702;2022-12-07T14:26:15;11.77;;;8.30;;
62102;SDS011;48077;48.104;11.702;2022-12-07T14:28:43;12.15;;;8.05;;
62102;SDS011;48077;48.104;11.702;2022-12-07T14:31:24;11.85;;;8.07;;
62102;SDS011;48077;48.104;11.702;2022-12-07T14:33:48;12.80;;;8.27;;
62102;SDS011;48077;48.104;11.702;2022-12-07T14:36:11;10.55;;;7.78;;
62102;SDS011;48077;48.104;11.702;2022-12-07T14:38:36;13.07;;;8.93;;
62102;SDS011;48077;48.104;11.702;2022-12-07T14:40:59;11.38;;;8.38;;
62102;SDS011;48077;48.104;11.702;2022-12-07T14:43:43;12.80;;;8.00;;
62102;SDS011;48077;48.104;11.702;2022-12-07T14:46:06;9.95;;;7.15;;
62102;SDS011;48077;48.104;11.702;2022-12-07T14:48:29;12.98;;;8.88;;
62102;SDS011;48077;48.104;11.702;2022-12-07T14:50:53;11.18;;;8.27;;
62102;SDS011;48077;48.104;11.702;2022-12-07T14:53:17;11.13;;;7.03;;
62102;SDS011;48077;48.104;11.702;2022-12-07T14:55:44;9.77;;;7.28;;
62102;SDS011;48077;48.104;11.702;2022-12-07T14:58:14;14.20;;;7.78;;
62102;SDS011;48077;48.104;11.702;2022-12-07T15:00:38;13.52;;;8.00;;
62102;SDS011;48077;48.104;11.702;2022-12-07T15:03:02;12.13;;;7.65;;
62102;SDS011;48077;48.104;11.702;2022-12-07T15:05:25;11.45;;;8.45;;
62102;SDS011;48077;48.104;11.702;2022-12-07T15:07:49;12.00;;;8.43;;
62102;SDS011;48077;48.104;11.702;2022-12-07T15:10:23;11.82;;;8.00;;
62102;SDS011;48077;48.104;11.702;2022-12-07T15:12:52;11.77;;;8.60;;
62102;SDS011;48077;48.104;11.702;2022-12-07T15:15:16;11.98;;;8.52;;
62102;SDS011;48077;48.104;11.702;2022-12-07T15:17:40;13.57;;;8.75;;
62102;SDS011;48077;48.104;11.702;2022-12-07T15:20:03;10.13;;;8.05;;
62102;SDS011;48077;48.104;11.702;2022-12-07T15:22:27;12.18;;;10.35;;
62102;SDS011;48077;48.104;11.702;2022-12-07T15:24:52;10.95;;;9.35;;
62102;SDS011;48077;48.104;11.702;2022-12-07T15:27:16;12.07;;;9.25;;
62102;SDS011;48077;48.104;11.702;2022-12-07T15:29:39;13.95;;;9.38;;
62102;SDS011;48077;48.104;11.702;2022-12-07T15:32:03;11.02;;;9.60;;
62102;SDS011;48077;48.104;11.702;2022-12-07T15:34:26;12.23;;;9.90;;
62102;SDS011;48077;48.104;11.702;2022-12-07T15:36:51;10.65;;;8.63;;
62102;SDS011;48077;48.104;11.702;2022-12-07T15:39:14;11.18;;;8.63;;
62102;SDS011;48077;48.104;11.702;2022-12-07T15:41:38;15.05;;;10.77;;
62102;SDS011;48077;48.104;11.702;2022-12-07T15:44:01;13.20;;;11.10;;
62102;SDS011;48077;48.104;11.702;2022-12-07T15:46:43;13.18;;;11.40;;
62102;SDS011;48077;48.104;11.702;2022-12-07T15:49:14;14.82;;;11.50;;
62102;SDS011;48077;48.104;11.702;2022-12-07T15:51:40;13.90;;;12.50;;
62102;SDS011;48077;48.104;11.702;2022-12-07T15:54:04;15.85;;;12.90;;